• Join FlightAware (Why Join?)
  • Login
  • US Flag 
07:36PM EDT


 

Airport Tracker/Info


-or-


 

Live Flight TrackerFlight Track Log ✈ CTL22 ✈ 20-May-2013 ✈ KBKL - KGRR

Flight Track Log - Related Links

Times and Time Zones

All times are in EDT time to prevent confusion due to time zone crossing. See the CTL22 flight status page for this flight to view local times or setup timezone preferences in your user account.

Time Position Orientation Groundspeed Altitude Reporting Facility
EDT Latitude Longitude Course Direction KTS MPH feet Rate Location/Type
10:06PM 42.5131 -84.2856 294° West 157 181 6,000  Level Chicago Center
10:07PM 42.5306 -84.3400 294° West 158 182 6,000  Level Chicago Center
10:08PM 42.5489 -84.3931 295° West 157 181 6,000 -300 Level Chicago Center
10:09PM 42.5656 -84.4494 292° West 160 184 5,500 -540 Descending Chicago Center
10:10PM 42.5833 -84.5106 292° West 171 197 4,900 -600 Descending Chicago Center
10:11PM 42.6019 -84.5711 293° West 175 201 4,300 -480 Descending Chicago Center
10:12PM 42.6194 -84.6297 292° West 171 197 4,000 -180 Descending Chicago Center
10:13PM 42.6375 -84.6831 298° West 161 185 4,000  Level Chicago Center
10:14PM 42.6558 -84.7447 292° West 149 171 4,000  Level Chicago Center
10:15PM 42.6711 -84.7950 292° West 147 169 4,000  Level Chicago Center
10:16PM 42.6875 -84.8469 293° West 149 171 4,000  Level Chicago Center
10:17PM 42.7033 -84.9025 291° West 154 177 4,100  Climbing Chicago Center
10:18PM 42.7169 -84.9561 289° West 153 176 4,000 -60 Descending Chicago Center
10:19PM 42.7347 -85.0072 295° West 151 174 4,000 -60 Level Chicago Center
10:20PM 42.7508 -85.0625 292° West 155 178 3,900  Descending Chicago Center
10:22PM 42.7681 -85.1142 294° West 153 176 4,000 -60 Climbing Chicago Center
10:23PM 42.7914 -85.1767 297° West 154 177 3,800 -240 Descending Chicago Center
10:24PM 42.8100 -85.2311 295° West 158 182 3,600 -360 Descending Chicago Center
10:25PM 42.8289 -85.2869 295° West 162 186 3,100 -540 Descending Chicago Center
10:26PM 42.8458 -85.3478 291° West 167 192 2,600 -540 Descending Chicago Center
10:27PM 42.8617 -85.4078 290° West 169 194 2,100 -540 Descending Chicago Center
10:28PM 42.8753 -85.4653 288° West 165 190 1,500 -540 Descending Chicago Center
10:29PM 42.8836 -85.5239 281° West 157 181 1,000 -540 Descending Chicago Center